Time;durP1;ratioP1;P1;durP2;ratioP2;P2;SDS_P1;SDS_P2;PMS_P1;PMS_P2;Temp;Humidity;BMP_temperature;BMP_pressure;BME280_temperature;BME280_humidity;BME280_pressure;Samples;Min_cycle;Max_cycle;Signal;HPM_P1;HPM_P2
2023/01/12 00:00:29;;;;;;;;;3.00;2.00;;;;;11.59;65.95;101819.72;2011531;28;2754439;-77
2023/01/12 00:01:40;;;;;;;;;4.33;2.33;;;;;11.58;65.87;101825.91;1963669;28;2754455;-77
2023/01/12 00:02:53;;;;;;;;;2.83;1.67;;;;;11.59;65.67;101807.41;2019367;28;2744019;-77
2023/01/12 00:04:07;;;;;;;;;6.33;2.00;;;;;11.61;66.05;101807.38;2015778;28;2749215;-78
2023/01/12 00:05:20;;;;;;;;;3.67;3.17;;;;;11.62;65.61;101806.50;1995850;28;2746107;-78
2023/01/12 00:06:34;;;;;;;;;2.83;1.67;;;;;11.62;65.64;101800.34;1995697;28;2745060;-77
2023/01/12 00:07:47;;;;;;;;;3.83;2.00;;;;;11.62;65.83;101803.84;1989028;28;2754426;-77
2023/01/12 00:09:02;;;;;;;;;4.00;4.00;;;;;11.64;65.81;101807.31;1989542;28;2740906;-78
2023/01/12 00:10:15;;;;;;;;;3.00;2.17;;;;;11.66;65.93;101809.91;1987488;28;2754420;-78
2023/01/12 00:11:29;;;;;;;;;3.67;1.00;;;;;11.67;66.01;101811.66;1988357;28;2739889;-78
2023/01/12 00:12:43;;;;;;;;;4.83;4.00;;;;;11.68;65.89;101803.72;1988891;28;2738846;-78
2023/01/12 00:13:53;;;;;;;;;10.00;3.00;;;;;11.68;65.95;101808.13;1963235;28;2766021;-78
2023/01/12 00:15:05;;;;;;;;;4.00;1.33;;;;;11.69;66.00;101805.47;2010407;28;2746110;-78
2023/01/12 00:16:33;;;;;;;;;5.33;1.67;;;;;11.70;65.96;101807.19;1959727;28;2746176;-78
2023/01/12 00:17:46;;;;;;;;;7.83;4.33;;;;;11.72;65.78;101803.66;2004836;28;2740890;-78
2023/01/12 00:19:20;;;;;;;;;6.33;1.67;;;;;11.70;65.97;101801.91;1980056;28;2752356;-78
2023/01/12 00:20:33;;;;;;;;;5.83;3.33;;;;;11.71;65.81;101794.88;1979229;28;2740894;-78
2023/01/12 00:23:10;;;;;;;;;5.33;3.33;;;;;11.73;66.06;101782.53;1962202;28;2741956;-78
2023/01/12 00:24:35;;;;;;;;;1.67;1.33;;;;;11.74;66.43;101778.16;2014162;28;2744019;-78
2023/01/12 00:25:52;;;;;;;;;6.50;2.50;;;;;11.74;66.43;101775.53;2016828;28;2754464;-77
2023/01/12 00:27:08;;;;;;;;;6.00;2.50;;;;;11.73;66.49;101774.66;1989270;28;2754429;-78
2023/01/12 00:28:21;;;;;;;;;2.17;2.00;;;;;11.74;66.61;101775.53;1988315;28;2748210;-77
2023/01/12 00:29:35;;;;;;;;;5.50;2.83;;;;;11.75;66.95;101779.91;2011041;28;2745050;-78
2023/01/12 00:30:48;;;;;;;;;2.50;1.83;;;;;11.75;66.70;101783.41;1984860;28;2749223;-77
2023/01/12 00:32:02;;;;;;;;;4.00;2.00;;;;;11.77;66.83;101778.09;1957295;28;2752349;-77
2023/01/12 00:33:15;;;;;;;;;3.67;2.00;;;;;11.78;66.88;101778.06;2011859;28;2754435;-77
2023/01/12 00:34:27;;;;;;;;;7.00;1.75;;;;;11.79;66.92;101768.38;1976350;28;1829414;-77
2023/01/12 00:35:40;;;;;;;;;6.67;2.50;;;;;11.80;66.95;101764.88;2011353;28;2743001;-78
2023/01/12 00:36:54;;;;;;;;;2.00;2.00;;;;;11.81;66.98;101759.56;1989081;28;2733579;-78
2023/01/12 00:38:07;;;;;;;;;7.67;2.00;;;;;11.79;66.73;101756.09;1963827;28;2754436;-78
2023/01/12 00:39:19;;;;;;;;;4.00;2.33;;;;;11.82;66.71;101763.06;1986927;28;2754542;-77
2023/01/12 00:40:34;;;;;;;;;2.67;1.67;;;;;11.81;66.33;101766.59;2011416;28;2741948;-77
2023/01/12 00:46:31;;;;;;;;;2.00;1.00;;;;;11.79;66.70;101764.00;1982473;28;2726316;-78
2023/01/12 00:47:44;;;;;;;;;5.17;2.00;;;;;11.80;66.46;101764.88;2004325;28;2747121;-78
2023/01/12 00:48:57;;;;;;;;;3.83;2.00;;;;;11.79;66.72;101755.22;1980720;28;2752753;-78
2023/01/12 00:50:11;;;;;;;;;6.17;2.00;;;;;11.79;66.67;101755.22;1984378;28;2749257;-78
2023/01/12 00:51:24;;;;;;;;;7.17;3.17;;;;;11.79;66.32;101764.00;1973829;28;2756534;-78
2023/01/12 00:52:34;;;;;;;;;9.67;3.00;;;;;11.80;66.64;101759.59;1954701;28;2764829;-77
2023/01/12 00:53:45;;;;;;;;;3.33;0.33;;;;;11.79;66.45;101750.81;2003162;28;2739841;-77
2023/01/12 00:54:59;;;;;;;;;5.67;2.17;;;;;11.80;66.56;101754.34;1981290;28;2749212;-78
2023/01/12 00:56:12;;;;;;;;;4.83;1.83;;;;;11.80;66.33;101746.44;1981275;28;2750285;-78
2023/01/12 00:57:22;;;;;;;;;3.33;1.00;;;;;11.80;66.45;101738.53;1956481;28;2754433;-78
2023/01/12 00:58:34;;;;;;;;;1.33;1.33;;;;;11.81;66.43;101737.59;2002656;28;2750264;-78
2023/01/12 01:16:36;;;;;;;;;5.00;2.00;;;;;11.76;66.21;101715.78;1988479;28;2746107;-78
2023/01/12 01:17:50;;;;;;;;;5.67;2.17;;;;;11.74;66.25;101717.56;1990092;28;2746107;-78
2023/01/12 01:19:04;;;;;;;;;7.67;2.83;;;;;11.74;66.26;101734.25;1990449;28;2745077;-78
2023/01/12 01:20:15;;;;;;;;;6.33;4.00;;;;;11.75;66.29;101719.31;1964487;28;2749232;-78
2023/01/12 01:21:27;;;;;;;;;5.75;2.25;;;;;11.76;66.37;101715.78;2011187;28;2747208;-78
2023/01/12 01:22:40;;;;;;;;;3.67;2.33;;;;;11.77;66.09;101722.78;2009376;28;2749697;-78
2023/01/12 01:23:53;;;;;;;;;5.17;3.67;;;;;11.75;66.15;101711.41;1988839;28;2746115;-78
2023/01/12 01:25:07;;;;;;;;;2.83;1.50;;;;;11.75;66.38;101720.19;1991297;28;2731524;-78
2023/01/12 01:26:22;;;;;;;;;1.50;0.50;;;;;11.75;66.15;101722.84;2013779;28;2730482;-78
2023/01/12 01:27:35;;;;;;;;;5.50;1.83;;;;;11.77;66.45;101722.78;2014417;28;2731504;-78
2023/01/12 01:37:30;;;;;;;;;3.17;2.33;;;;;11.65;66.30;101716.91;2011247;28;2754484;-78
2023/01/12 01:38:45;;;;;;;;;4.67;0.50;;;;;11.64;66.43;101722.19;1967500;28;2738835;-78
2023/01/12 01:39:58;;;;;;;;;3.17;1.50;;;;;11.62;66.24;101719.59;1975404;28;2735672;-78
2023/01/12 01:41:21;;;;;;;;;3.67;1.50;;;;;11.62;66.31;101723.97;2005166;28;2737790;-78
2023/01/12 01:42:34;;;;;;;;;5.17;3.00;;;;;11.61;66.45;101717.84;2002775;28;2741921;-78
2023/01/12 01:43:49;;;;;;;;;5.33;2.50;;;;;11.62;66.65;101711.69;1996424;28;2752337;-78
2023/01/12 01:45:03;;;;;;;;;2.00;1.33;;;;;11.62;66.65;101724.84;1949113;28;2748193;-78
2023/01/12 01:46:28;;;;;;;;;3.67;1.83;;;;;11.63;66.52;101726.56;1998058;28;2745114;-78
2023/01/12 01:47:44;;;;;;;;;7.00;2.00;;;;;11.63;66.70;101723.94;1949066;28;3465881;-78
2023/01/12 01:48:59;;;;;;;;;6.67;2.67;;;;;11.64;66.59;101720.41;1972548;28;2741916;-78
2023/01/12 01:50:17;;;;;;;;;6.17;2.83;;;;;11.64;66.66;101717.78;1996835;28;2754448;-78
2023/01/12 01:51:30;;;;;;;;;2.00;1.67;;;;;11.64;66.97;101715.16;1998012;28;2736281;-77
2023/01/12 01:52:45;;;;;;;;;4.00;2.33;;;;;11.65;66.65;101721.28;1971910;28;2750846;-77
2023/01/12 01:54:00;;;;;;;;;2.83;1.67;;;;;11.64;66.68;101717.78;1997929;28;2751300;-78
2023/01/12 01:55:21;;;;;;;;;4.83;1.17;;;;;11.65;66.68;101714.25;1997980;28;2739859;-78
2023/01/12 01:56:36;;;;;;;;;7.67;3.50;;;;;11.64;66.91;101694.09;1973740;28;2749759;-77
2023/01/12 01:58:15;;;;;;;;;4.83;1.67;;;;;11.64;66.94;101686.19;1975335;28;2729429;-78
2023/01/12 01:59:33;;;;;;;;;2.00;1.17;;;;;11.65;67.01;101689.69;1973232;28;2727346;-77
2023/01/12 02:00:45;;;;;;;;;6.67;1.33;;;;;11.65;66.69;101697.59;1980178;28;2752332;-78
2023/01/12 02:01:56;;;;;;;;;6.33;3.00;;;;;11.65;66.93;101701.09;1972324;28;2754436;-78
2023/01/12 02:03:11;;;;;;;;;4.67;0.67;;;;;11.65;67.01;101695.84;1998324;28;2744015;-78
2023/01/12 02:04:24;;;;;;;;;6.83;2.50;;;;;11.67;66.98;101701.06;1997143;28;2745597;-78
2023/01/12 02:05:42;;;;;;;;;1.67;1.17;;;;;11.67;66.87;101701.94;1973924;28;2732557;-78
2023/01/12 02:06:57;;;;;;;;;3.50;2.00;;;;;11.69;66.81;101704.50;1996995;28;2750279;-78
2023/01/12 02:08:32;;;;;;;;;3.67;1.50;;;;;11.69;66.99;101710.66;1997164;28;2754893;-78
2023/01/12 02:09:45;;;;;;;;;1.67;1.50;;;;;11.70;66.82;101711.53;1974952;28;2734629;-78
2023/01/12 02:11:01;;;;;;;;;2.17;0.67;;;;;11.72;66.98;101706.22;1998523;28;2735687;-78
2023/01/12 02:17:02;;;;;;;;;0.67;0.50;;;;;11.72;66.73;101695.69;1972705;28;2737757;-77
2023/01/12 02:18:38;;;;;;;;;7.33;1.00;;;;;11.74;66.97;101707.03;1978291;28;2770052;-78
2023/01/12 02:20:16;;;;;;;;;3.67;0.83;;;;;11.73;66.87;101700.91;1998369;28;2738811;-78
2023/01/12 02:22:06;;;;;;;;;5.83;2.67;;;;;11.75;66.94;101696.50;1974756;28;2749224;-77
2023/01/12 02:23:38;;;;;;;;;6.00;2.17;;;;;11.75;67.07;101693.00;1982202;28;2747648;-77
2023/01/12 02:25:29;;;;;;;;;5.00;1.67;;;;;11.76;66.68;101685.03;1978932;28;2748211;-77
2023/01/12 02:26:52;;;;;;;;;7.00;2.00;;;;;11.75;67.17;101683.31;1943880;28;2762790;-78
2023/01/12 02:28:24;;;;;;;;;5.50;1.50;;;;;11.77;66.85;101688.53;1997158;28;2754436;-77
2023/01/12 02:30:12;;;;;;;;;4.17;1.17;;;;;11.78;66.91;101677.09;1975821;28;2732551;-78
2023/01/12 02:31:41;;;;;;;;;6.00;4.17;;;;;11.79;66.94;101678.84;1997195;28;2745523;-78
2023/01/12 02:33:13;;;;;;;;;4.33;2.00;;;;;11.79;66.73;101682.34;1948746;28;2754449;-77
2023/01/12 02:34:40;;;;;;;;;12.33;5.33;;;;;11.79;67.02;101679.72;1976641;28;3506497;-77
2023/01/12 02:36:16;;;;;;;;;7.33;4.17;;;;;11.79;66.80;101671.81;2000683;28;2754799;-78
2023/01/12 02:37:44;;;;;;;;;6.83;5.33;;;;;11.80;66.98;101670.03;1966376;28;2750277;-77
2023/01/12 02:39:19;;;;;;;;;9.00;6.33;;;;;11.80;67.04;101665.63;1955816;28;2740983;-78
2023/01/12 02:40:42;;;;;;;;;11.00;6.00;;;;;11.79;67.18;101665.66;1978861;28;2767049;-77
2023/01/12 02:43:42;;;;;;;;;6.33;4.33;;;;;11.81;66.95;101671.75;2003796;28;2741922;-77
2023/01/12 02:45:13;;;;;;;;;13.67;6.00;;;;;11.82;67.03;101669.13;1986048;28;2754466;-78
2023/01/12 02:46:30;;;;;;;;;3.00;1.33;;;;;11.82;67.00;101657.69;1963656;28;2754452;-78
2023/01/12 02:47:55;;;;;;;;;6.33;2.67;;;;;11.83;66.75;101662.03;2013017;28;2747133;-78
2023/01/12 02:49:14;;;;;;;;;4.67;2.83;;;;;11.83;66.86;101651.50;1990477;28;2729452;-78
2023/01/12 02:50:38;;;;;;;;;7.50;2.50;;;;;11.84;66.94;101653.25;1997146;28;2760670;-77
2023/01/12 02:51:54;;;;;;;;;3.33;2.33;;;;;11.85;66.94;101648.88;1969620;28;2754417;-78
2023/01/12 02:53:29;;;;;;;;;3.00;2.83;;;;;11.86;66.99;101656.72;2013265;28;2754420;-78
2023/01/12 02:54:47;;;;;;;;;2.83;1.83;;;;;11.87;66.96;101650.56;1990306;28;2733605;-78
2023/01/12 02:55:59;;;;;;;;;8.33;2.00;;;;;11.88;67.14;101652.28;1961713;28;3486164;-78
2023/01/12 02:57:14;;;;;;;;;2.67;2.17;;;;;11.88;66.99;101647.00;2012578;28;2750275;-78
2023/01/12 02:58:31;;;;;;;;;3.67;1.67;;;;;11.89;66.76;101653.16;1989660;28;2733591;-78
2023/01/12 02:59:49;;;;;;;;;2.33;0.67;;;;;11.89;66.85;101643.47;2012682;28;2733616;-78
2023/01/12 03:01:05;;;;;;;;;1.50;1.00;;;;;11.90;66.67;101647.00;2013878;28;2733603;-78
2023/01/12 03:02:21;;;;;;;;;4.33;1.00;;;;;11.90;66.60;101639.09;2013341;28;2734669;-78
2023/01/12 03:03:38;;;;;;;;;3.00;1.17;;;;;11.91;66.77;101640.78;2012965;28;2732585;-78
2023/01/12 03:04:51;;;;;;;;;0.83;0.83;;;;;11.91;66.73;101625.88;1997730;28;2735703;-78
2023/01/12 03:06:06;;;;;;;;;2.83;0.83;;;;;11.92;66.76;101635.50;2019648;28;2733634;-78
2023/01/12 03:07:39;;;;;;;;;1.17;0.67;;;;;11.92;66.77;101632.88;1990624;28;2736713;-78
2023/01/12 03:08:53;;;;;;;;;3.17;1.67;;;;;11.92;66.59;101632.88;2019511;28;2731521;-78
2023/01/12 03:10:23;;;;;;;;;2.17;1.00;;;;;11.92;66.74;101626.75;2016858;28;2741960;-78
2023/01/12 03:11:39;;;;;;;;;4.83;1.33;;;;;11.92;66.50;101622.34;1987629;28;2741929;-77
2023/01/12 03:12:54;;;;;;;;;4.50;1.67;;;;;11.92;66.83;101611.81;1983303;28;2734125;-78
2023/01/12 03:14:09;;;;;;;;;2.00;0.67;;;;;11.93;66.65;101612.66;2014149;28;2738799;-77
2023/01/12 03:15:25;;;;;;;;;1.00;1.00;;;;;11.91;66.75;101607.44;1989963;28;2734633;-78
2023/01/12 03:16:39;;;;;;;;;0.83;0.83;;;;;11.92;66.93;101596.00;1989720;28;2742958;-78
2023/01/12 03:18:12;;;;;;;;;2.33;0.67;;;;;11.94;66.62;101595.94;1998342;28;2727419;-78
2023/01/12 03:19:31;;;;;;;;;3.50;0.50;;;;;11.93;66.55;101592.44;2015706;28;2740922;-77
2023/01/12 03:20:52;;;;;;;;;3.33;1.00;;;;;11.95;66.80;101591.56;1989874;28;2730518;-77
2023/01/12 03:22:10;;;;;;;;;1.83;0.67;;;;;11.95;67.07;101602.94;2013333;28;2731536;-77
2023/01/12 03:23:39;;;;;;;;;2.83;1.00;;;;;11.95;67.18;101597.66;1989375;28;2741952;-77
2023/01/12 03:24:57;;;;;;;;;3.67;1.33;;;;;11.95;66.41;101596.81;1989018;28;2746103;-77
2023/01/12 03:26:14;;;;;;;;;2.33;0.83;;;;;11.95;67.01;101592.38;1989968;28;2736720;-77
2023/01/12 03:27:49;;;;;;;;;1.33;1.00;;;;;11.96;67.11;101588.00;2013422;28;2730491;-77
2023/01/12 03:29:11;;;;;;;;;2.67;1.00;;;;;11.97;67.08;101592.38;1989551;28;2748186;-77
2023/01/12 03:30:42;;;;;;;;;3.00;0.50;;;;;11.97;67.09;101597.63;1990713;28;2729441;-77
2023/01/12 03:31:55;;;;;;;;;0.67;0.67;;;;;11.96;66.87;101588.00;1990392;28;2739877;-78
2023/01/12 03:33:11;;;;;;;;;4.50;1.67;;;;;11.96;67.16;101588.88;2012166;28;2737775;-77
2023/01/12 03:34:25;;;;;;;;;3.17;1.00;;;;;11.96;67.04;101586.22;1989641;28;2738822;-78
2023/01/12 03:35:46;;;;;;;;;3.00;1.00;;;;;11.95;67.05;101587.13;2012909;28;2737782;-78
2023/01/12 03:37:02;;;;;;;;;0.67;0.00;;;;;11.97;67.17;101587.09;2012844;28;2735678;-78
2023/01/12 03:38:27;;;;;;;;;0.67;0.67;;;;;11.97;67.41;101587.09;2009179;28;2733628;-78
2023/01/12 03:39:52;;;;;;;;;2.00;0.67;;;;;11.97;67.44;101585.34;2005019;28;2746087;-78
2023/01/12 03:41:15;;;;;;;;;2.00;1.67;;;;;11.99;67.39;101583.53;1983365;28;2728411;-78
2023/01/12 03:42:39;;;;;;;;;5.00;2.00;;;;;11.99;67.55;101580.91;1989201;28;2746122;-78
2023/01/12 03:43:58;;;;;;;;;5.67;0.83;;;;;12.00;67.39;101579.13;1989244;28;2746098;-78
2023/01/12 03:45:40;;;;;;;;;1.67;1.00;;;;;12.00;67.35;101587.88;1989823;28;2736712;-78
2023/01/12 03:47:00;;;;;;;;;1.67;0.00;;;;;11.98;67.51;101579.16;2011771;28;2728419;-78
2023/01/12 03:48:24;;;;;;;;;1.33;1.33;;;;;12.00;67.60;101574.69;2009093;28;2738808;-78
2023/01/12 03:49:44;;;;;;;;;2.67;0.67;;;;;12.00;67.51;101560.69;2005272;28;2733596;-78
2023/01/12 03:51:12;;;;;;;;;5.00;0.83;;;;;12.01;67.40;101565.91;2004426;28;2735674;-77
2023/01/12 03:52:29;;;;;;;;;1.33;1.33;;;;;12.01;67.62;101575.56;2005674;28;2729464;-77
2023/01/12 03:53:45;;;;;;;;;1.50;1.00;;;;;12.00;67.62;101579.97;1982137;28;2737761;-77
2023/01/12 03:55:00;;;;;;;;;1.50;1.50;;;;;12.00;67.65;101565.97;2005643;28;2734638;-78
2023/01/12 03:56:16;;;;;;;;;1.00;1.00;;;;;12.01;67.47;101568.53;1982651;28;2734645;-78
2023/01/12 03:57:31;;;;;;;;;2.67;1.00;;;;;12.00;67.37;101558.06;1990732;28;2727330;-78
2023/01/12 03:58:42;;;;;;;;;3.33;1.33;;;;;12.01;67.68;101565.03;1970827;28;2735766;-78
2023/01/12 03:59:57;;;;;;;;;1.83;0.33;;;;;12.00;67.70;101563.31;2019176;28;2740888;-78
2023/01/12 04:01:11;;;;;;;;;3.50;1.67;;;;;11.99;67.79;101559.81;1990161;28;2726292;-78
2023/01/12 04:02:24;;;;;;;;;4.00;2.83;;;;;12.01;67.73;101562.41;2019979;28;2752360;-78
2023/01/12 04:03:37;;;;;;;;;8.67;1.00;;;;;12.02;67.71;101569.41;1994777;28;2746576;-78
2023/01/12 04:04:50;;;;;;;;;3.00;1.50;;;;;12.01;67.54;101552.72;1986780;28;2736731;-78
2023/01/12 04:06:04;;;;;;;;;2.00;1.00;;;;;12.01;67.72;101557.13;1990109;28;2734731;-78
2023/01/12 04:07:17;;;;;;;;;2.00;1.33;;;;;12.01;67.65;101551.84;2013074;28;2736729;-78
2023/01/12 04:08:30;;;;;;;;;1.00;1.00;;;;;12.01;67.42;101551.84;1990322;28;2730982;-78
2023/01/12 04:09:43;;;;;;;;;1.00;1.00;;;;;12.01;67.50;101546.59;2012475;28;2729445;-78
2023/01/12 04:10:57;;;;;;;;;7.17;1.83;;;;;12.02;67.62;101543.06;1989425;28;2731543;-78
2023/01/12 04:12:10;;;;;;;;;5.50;0.83;;;;;12.01;67.51;101526.38;2011923;28;2733029;-77
2023/01/12 04:13:23;;;;;;;;;3.67;2.83;;;;;12.03;67.59;101534.22;2011745;28;2739861;-77
2023/01/12 04:14:34;;;;;;;;;4.33;2.00;;;;;12.03;67.55;101528.97;1986558;28;2749261;-77
2023/01/12 04:15:46;;;;;;;;;4.00;2.00;;;;;12.02;67.52;101527.25;2010886;28;2754455;-78
2023/01/12 04:17:00;;;;;;;;;2.33;1.83;;;;;12.01;67.51;101534.28;1991389;28;2737757;-78
2023/01/12 04:18:13;;;;;;;;;2.83;0.67;;;;;12.01;67.60;101530.78;2012812;28;2736724;-78
2023/01/12 04:19:23;;;;;;;;;4.00;3.00;;;;;11.99;67.58;101516.78;1964073;28;2754467;-78
2023/01/12 04:20:34;;;;;;;;;5.67;2.67;;;;;11.99;67.64;101520.28;2019114;28;2741932;-78
2023/01/12 04:23:19;;;;;;;;;4.00;0.67;;;;;11.99;67.81;101511.53;1988030;28;2725262;-78
2023/01/12 04:24:33;;;;;;;;;5.67;2.50;;;;;11.98;67.78;101512.41;2012165;28;2754424;-78
2023/01/12 04:25:46;;;;;;;;;3.50;1.00;;;;;11.97;67.52;101518.59;1988655;28;2732612;-78
2023/01/12 04:26:59;;;;;;;;;6.33;2.50;;;;;11.97;67.67;101519.47;2011070;28;2752341;-77
2023/01/12 04:28:12;;;;;;;;;3.83;2.33;;;;;11.98;67.73;101525.59;1987584;28;2741954;-78
2023/01/12 04:29:25;;;;;;;;;3.67;1.67;;;;;11.98;67.68;101509.78;1982249;28;2734700;-78
2023/01/12 04:30:39;;;;;;;;;4.17;1.00;;;;;11.99;67.52;101519.41;2012113;28;2741924;-77
2023/01/12 04:31:52;;;;;;;;;7.17;1.00;;;;;11.99;67.50;101511.53;2015474;28;2736719;-78
2023/01/12 04:33:06;;;;;;;;;2.83;2.00;;;;;12.00;67.63;101500.94;1989332;28;2739860;-78
2023/01/12 04:34:20;;;;;;;;;4.00;1.67;;;;;12.00;67.67;101502.72;1990799;28;2732586;-78
2023/01/12 04:35:33;;;;;;;;;5.33;1.33;;;;;12.01;67.64;101499.16;1989727;28;2736724;-78
2023/01/12 04:36:46;;;;;;;;;1.67;1.67;;;;;12.00;67.55;101497.44;2011617;28;2734006;-78
2023/01/12 04:38:07;;;;;;;;;1.33;1.17;;;;;12.00;67.78;101494.81;2011150;28;2738816;-78
2023/01/12 04:39:20;;;;;;;;;3.83;1.67;;;;;12.01;67.82;101483.34;2011284;28;2754460;-78
2023/01/12 04:40:33;;;;;;;;;3.33;1.83;;;;;12.01;67.67;101486.88;1988727;28;2733621;-78
2023/01/12 04:41:47;;;;;;;;;6.50;2.50;;;;;12.01;67.27;101484.22;2012629;28;2750293;-78
2023/01/12 04:43:00;;;;;;;;;3.33;1.00;;;;;12.01;67.41;101478.09;2012057;28;2735675;-78
2023/01/12 04:44:13;;;;;;;;;7.83;2.50;;;;;12.01;67.48;101484.22;1989190;28;2749274;-78
2023/01/12 04:45:32;;;;;;;;;3.00;1.67;;;;;12.02;67.67;101485.09;1990943;28;2737251;-78
2023/01/12 04:46:47;;;;;;;;;4.83;1.33;;;;;12.02;67.72;101485.97;2011594;28;2741968;-78
2023/01/12 04:48:10;;;;;;;;;7.00;1.67;;;;;12.03;67.60;101497.34;1969797;28;3459604;-77
2023/01/12 04:49:20;;;;;;;;;6.00;3.33;;;;;12.02;67.84;101498.28;1992343;28;2745109;-77
2023/01/12 04:50:31;;;;;;;;;5.00;3.67;;;;;12.02;67.46;101493.88;2008547;28;2740899;-78
2023/01/12 04:51:45;;;;;;;;;3.67;2.83;;;;;12.02;67.84;101493.88;1989856;28;2747152;-78
2023/01/12 04:53:01;;;;;;;;;3.00;2.00;;;;;12.03;67.68;101505.25;1988873;28;2752345;-78
2023/01/12 04:54:14;;;;;;;;;3.33;2.00;;;;;12.03;67.79;101502.63;2013332;28;2729468;-78
2023/01/12 04:55:28;;;;;;;;;8.17;1.67;;;;;12.03;67.53;101502.63;1989138;28;2749248;-77
2023/01/12 04:56:41;;;;;;;;;3.17;1.00;;;;;12.02;67.79;101498.28;1996608;28;2735690;-78
2023/01/12 04:57:55;;;;;;;;;5.67;1.33;;;;;12.04;67.75;101493.81;1994999;28;2740937;-77
2023/01/12 04:59:07;;;;;;;;;7.33;2.67;;;;;12.04;67.70;101493.81;1985770;28;2754506;-78
2023/01/12 05:00:18;;;;;;;;;3.33;2.00;;;;;12.04;67.44;101496.44;1984177;28;2737769;-78
2023/01/12 05:01:31;;;;;;;;;4.80;0.60;;;;;12.04;67.55;101496.44;2004471;28;2738819;-78
2023/01/12 05:02:44;;;;;;;;;1.67;1.33;;;;;12.05;67.57;101495.53;1983691;28;2737782;-78
2023/01/12 05:04:01;;;;;;;;;2.50;1.00;;;;;12.06;67.66;101499.91;1987670;28;2738875;-78
2023/01/12 05:05:15;;;;;;;;;1.83;1.67;;;;;12.09;67.74;101491.06;1988060;28;2733614;-77
2023/01/12 05:06:28;;;;;;;;;3.33;1.17;;;;;12.08;67.27;101495.47;2012897;28;2732586;-78
2023/01/12 05:10:21;;;;;;;;;3.83;2.00;;;;;12.09;67.60;101485.78;1990025;28;2731523;-78
2023/01/12 05:10:57;;;;;;;;;4.33;1.17;;;;;12.10;67.53;101487.53;1988986;28;2737767;-78
2023/01/12 05:12:10;;;;;;;;;5.00;2.67;;;;;12.12;67.43;101483.06;1988922;28;2754427;-78
2023/01/12 05:13:27;;;;;;;;;1.50;1.50;;;;;12.12;67.28;101473.38;1988374;28;2736723;-78
2023/01/12 05:14:40;;;;;;;;;2.17;1.67;;;;;12.12;67.53;101460.19;1989020;28;2741924;-78
2023/01/12 05:15:54;;;;;;;;;1.00;0.50;;;;;12.13;67.48;101467.25;1996149;28;2740942;-78
2023/01/12 05:17:07;;;;;;;;;4.17;1.17;;;;;12.14;67.29;101476.91;2015465;28;2732601;-78
2023/01/12 05:18:21;;;;;;;;;4.17;2.00;;;;;12.15;67.16;101475.97;1983302;28;2746587;-78
2023/01/12 05:19:34;;;;;;;;;1.50;1.00;;;;;12.17;67.21;101493.53;1994202;28;2736709;-79
2023/01/12 05:20:47;;;;;;;;;7.33;0.00;;;;;12.16;67.75;101476.84;2011043;28;2737805;-78
2023/01/12 05:22:00;;;;;;;;;3.00;2.50;;;;;12.19;67.44;101486.44;1981931;28;2737770;-78
2023/01/12 05:23:14;;;;;;;;;1.50;1.50;;;;;12.21;67.16;101476.72;1981240;28;2746099;-78
2023/01/12 05:24:24;;;;;;;;;5.67;3.33;;;;;12.22;67.27;101475.81;1956254;28;2750284;-78
2023/01/12 05:25:35;;;;;;;;;5.00;3.33;;;;;12.21;66.82;101485.47;2003002;28;2740899;-79
2023/01/12 05:26:48;;;;;;;;;2.00;1.17;;;;;12.22;66.85;101481.09;2003882;28;2733614;-79
2023/01/12 05:28:02;;;;;;;;;3.17;0.50;;;;;12.23;66.91;101477.53;1985587;28;2748218;-79
2023/01/12 05:29:15;;;;;;;;;2.83;0.67;;;;;12.24;67.30;101479.25;2012492;28;2736183;-79
2023/01/12 05:30:29;;;;;;;;;3.83;1.17;;;;;12.26;67.41;101480.94;1989077;28;2734637;-79
2023/01/12 05:31:42;;;;;;;;;3.83;1.17;;;;;12.29;67.02;101473.84;1989179;28;2737159;-79
2023/01/12 05:32:55;;;;;;;;;1.67;1.67;;;;;12.31;67.10;101472.91;1988471;28;2737782;-79
2023/01/12 05:34:09;;;;;;;;;3.83;1.17;;;;;12.34;67.03;101480.75;1989327;28;2728384;-79
2023/01/12 05:35:22;;;;;;;;;1.33;1.00;;;;;12.36;66.73;101478.03;1989817;28;2732560;-79
2023/01/12 05:36:35;;;;;;;;;2.17;1.00;;;;;12.37;67.07;101469.25;1989174;28;2737758;-79
2023/01/12 05:37:48;;;;;;;;;1.50;0.33;;;;;12.40;67.06;101477.03;1988852;28;2729425;-79
2023/01/12 05:39:03;;;;;;;;;1.67;1.67;;;;;12.41;67.22;101473.50;1989683;28;2733591;-79
2023/01/12 05:40:17;;;;;;;;;3.67;0.83;;;;;12.44;67.02;101476.06;1996858;28;2744031;-79
2023/01/12 05:41:30;;;;;;;;;2.00;1.00;;;;;12.45;66.78;101464.59;1995728;28;2741921;-79
2023/01/12 05:44:12;;;;;;;;;9.67;1.00;;;;;12.50;66.47;101456.53;1964156;28;2767998;-78
2023/01/12 05:45:23;;;;;;;;;3.33;1.00;;;;;12.51;66.26;101471.47;2012696;28;2739849;-78
2023/01/12 05:46:39;;;;;;;;;3.67;0.83;;;;;12.53;66.80;101474.03;2013796;28;2740903;-78
2023/01/12 05:48:00;;;;;;;;;1.83;1.33;;;;;12.54;66.45;101474.03;1988694;28;2739833;-78
2023/01/12 05:49:13;;;;;;;;;2.67;1.83;;;;;12.55;66.30;101478.38;1990334;28;2730471;-78
2023/01/12 05:50:27;;;;;;;;;2.67;1.00;;;;;12.55;66.86;101477.50;1989107;28;2734673;-78
2023/01/12 05:51:40;;;;;;;;;1.17;1.00;;;;;12.54;66.51;101474.03;1990765;28;2744012;-78
2023/01/12 05:52:54;;;;;;;;;1.00;1.00;;;;;12.56;66.51;101477.47;1990241;28;2738139;-78
2023/01/12 05:54:07;;;;;;;;;3.33;1.33;;;;;12.56;66.28;101476.59;2008184;28;2724253;-78
2023/01/12 05:55:21;;;;;;;;;1.67;1.00;;;;;12.56;66.23;101479.25;1987903;28;2743030;-78
2023/01/12 05:56:34;;;;;;;;;2.17;1.00;;;;;12.56;66.06;101469.56;1983109;28;2741932;-78
2023/01/12 05:57:47;;;;;;;;;2.83;0.00;;;;;12.56;66.36;101485.38;1984063;28;2731867;-78
2023/01/12 05:59:03;;;;;;;;;4.00;1.33;;;;;12.55;66.52;101470.47;1999889;28;2730466;-78
2023/01/12 06:00:17;;;;;;;;;1.00;1.00;;;;;12.57;66.31;101481.81;1988637;28;2739853;-77
2023/01/12 06:01:31;;;;;;;;;0.67;0.00;;;;;12.56;66.55;101480.09;1997831;28;2725266;-78
2023/01/12 06:02:44;;;;;;;;;1.50;0.50;;;;;12.57;66.36;101486.22;2014529;28;2732633;-77
2023/01/12 06:03:59;;;;;;;;;1.00;1.00;;;;;12.56;66.38;101480.09;2014044;28;2740914;-77
2023/01/12 06:05:12;;;;;;;;;1.33;1.33;;;;;12.58;66.68;101486.19;1991034;28;2736711;-78
2023/01/12 06:06:29;;;;;;;;;1.00;1.00;;;;;12.59;66.64;101477.38;1989601;28;2732578;-78
2023/01/12 06:07:43;;;;;;;;;1.83;0.50;;;;;12.61;66.31;101493.16;1982814;28;2741928;-77
2023/01/12 06:08:57;;;;;;;;;1.17;1.17;;;;;12.61;66.09;101490.53;2005600;28;2737801;-78
2023/01/12 06:10:11;;;;;;;;;1.67;0.33;;;;;12.62;66.44;101489.59;1990765;28;2727338;-78
2023/01/12 06:14:29;;;;;;;;;3.00;0.67;;;;;12.64;66.48;101479.03;2013345;28;2733620;-77
2023/01/12 06:15:42;;;;;;;;;1.00;0.00;;;;;12.66;66.49;101479.84;1989772;28;2727361;-78
2023/01/12 06:16:56;;;;;;;;;0.67;0.00;;;;;12.68;66.29;101489.44;2013054;28;2729444;-78
2023/01/12 06:18:09;;;;;;;;;2.17;1.50;;;;;12.68;66.54;101468.31;2021200;28;2735713;-77
2023/01/12 06:19:22;;;;;;;;;1.17;1.00;;;;;12.68;66.74;101464.81;1996793;28;2738820;-78
2023/01/12 06:20:35;;;;;;;;;4.33;0.67;;;;;12.69;66.63;101463.94;1989134;28;2739868;-78
2023/01/12 06:21:49;;;;;;;;;4.33;1.00;;;;;12.70;66.48;101455.09;1988113;28;2743018;-78
2023/01/12 06:23:03;;;;;;;;;3.50;1.17;;;;;12.70;66.87;101465.63;1989240;28;2748190;-78
2023/01/12 06:24:17;;;;;;;;;0.67;0.17;;;;;12.71;66.73;101470.00;1990504;28;2731555;-79
2023/01/12 06:25:30;;;;;;;;;3.00;1.33;;;;;12.72;66.68;101479.63;2010562;28;2746426;-79
2023/01/12 06:26:44;;;;;;;;;1.00;1.00;;;;;12.72;66.80;101474.34;1990950;28;2729418;-79
2023/01/12 06:27:58;;;;;;;;;3.67;0.83;;;;;12.74;66.63;101482.25;1988841;28;2735749;-78
2023/01/12 06:29:12;;;;;;;;;0.50;0.17;;;;;12.74;66.66;101474.34;1983875;28;2729437;-78
2023/01/12 06:30:25;;;;;;;;;3.67;0.83;;;;;12.73;66.54;101476.09;1982950;28;2736728;-78
2023/01/12 06:31:39;;;;;;;;;1.83;0.00;;;;;12.72;66.77;101471.72;1984932;28;2725295;-79
2023/01/12 06:32:52;;;;;;;;;3.67;1.33;;;;;12.72;66.95;101477.00;2020196;28;2736725;-78
2023/01/12 06:34:06;;;;;;;;;2.50;1.00;;;;;12.71;66.76;101489.34;1985999;28;2739888;-78